Daily Summary

Last 30 Days

Daily Data | America/Los_Angeles
as of 7/18/19 4:49 PM PDT
Date Daily Max Temp (°F) Daily Min Temp (°F) Daily Rain (In) Seasonal Rainfall (In) Daily Solar Rad (Cal/cm2) Daily ETo (in) Wind Spd (mph) Daily Max Wind (mph) Max Wind Dir (°) Dew Pt (°F) Max RH (%) Min RH (%) Leaf Wet (hrs) Soil Temp (°F) Soil Moist1 (%) Fuel Moisture (%) Max Fuel Moisture (%) Min Fuel Moisture (%) Bat Volt Min Day (V)
7/17/19 79.1 48.8 0.00 0.00 640 0.19 1.2 6.9 NW | 307 50.6 91 34 7.5 68.2 14.6 6 13 0 12.15
7/16/19 85.0 52.6 0.00 0.00 636 0.19 1.4 8.6 SW | 218 51.9 86 27 0.5 68.0 14.8 6 14 0 12.19
7/15/19 91.5 59.4 0.00 0.00 648 0.20 1.4 9.5 SW | 232 51.5 81 24 0.0 67.8 14.8 5 10 0 12.17
7/14/19 88.6 60.2 0.00 0.00 656 0.20 1.5 8.0 WSW | 246 51.5 66 23 0.0 67.5 14.9 5 12 0 12.17
7/13/19 89.7 59.2 0.00 0.00 653 0.20 1.3 7.5 WSW | 255 54.1 73 33 0.0 67.3 14.9 6 14 0 12.17
7/12/19 86.7 56.7 0.00 0.00 652 0.20 1.2 6.6 W | 280 55.9 87 38 5.6 67.0 15.0 7 17 0 12.16
7/11/19 88.3 56.8 0.00 0.00 649 0.20 1.4 10.0 S | 178 55.9 88 34 2.9 66.8 15.1 7 16 0 12.16
7/10/19 85.2 54.0 0.00 0.00 646 0.20 1.4 7.8 WSW | 258 55.9 92 40 8.3 66.7 15.1 8 17 0 12.18
7/9/19 79.0 48.6 0.00 0.00 629 0.18 1.4 7.4 WSW | 253 52.5 93 45 11.5 66.6 15.1 8 16 0 12.15
7/8/19 77.1 49.2 0.00 0.00 659 0.19 1.4 7.9 WSW | 252 51.2 93 45 7.2 66.5 15.2 7 14 0 12.18
7/7/19 74.2 45.9 0.00 0.00 609 0.17 1.1 7.0 SSW | 209 50.6 95 49 12.5 66.4 15.2 8 17 0 12.18
7/6/19 75.8 46.5 0.00 0.00 634 0.18 1.0 7.8 NW | 306 51.2 94 49 13.0 66.3 15.3 8 17 0 12.17
7/5/19 78.9 46.9 0.00 0.00 676 0.19 1.1 7.2 WSW | 244 52.0 94 46 12.7 66.1 15.4 8 16 0 12.16
7/4/19 74.9 47.8 0.00 0.00 672 0.19 1.3 7.1 WSW | 250 51.1 93 49 6.7 66.0 15.4 7 14 0 12.20
7/3/19 77.5 46.3 0.00 0.00 668 0.19 1.2 8.2 WNW | 288 50.6 94 41 13.4 65.9 15.5 8 16 0 12.17
7/2/19 81.2 50.8 0.00 0.00 653 0.19 1.5 15.9 WNW | 292 47.4 90 20 4.5 65.8 15.6 8 16 0 12.15
7/1/19 80.2 52.0 0.00 0.00 662 0.20 1.4 8.7 W | 280 48.8 86 31 3.3 65.8 15.7 8 16 0 12.15
6/30/19 81.3 52.8 0.00 58.78 673 0.20 1.3 7.1 WSW | 239 49.5 85 35 2.4 65.7 15.9 8 16 0 12.18
6/29/19 81.3 49.4 0.00 58.78 620 0.18 1.4 7.8 NW | 304 48.0 82 32 0.0 65.7 16.0 8 16 0 12.13
6/28/19 75.9 51.7 0.00 58.78 527 0.15 1.2 8.9 NW | 317 49.2 85 45 1.4 65.6 16.1 7 13 0 12.17
6/27/19 77.2 46.4 0.00 58.78 641 0.18 1.4 10.4 W | 260 45.6 91 31 7.2 65.6 16.2 8 17 0 12.14
6/26/19 77.8 48.4 0.00 58.78 663 0.19 1.6 11.0 W | 271 48.5 85 42 1.4 65.5 16.4 8 18 0 12.13
6/25/19 76.7 46.3 0.00 58.78 659 0.19 1.2 6.6 W | 274 51.8 95 48 12.8 65.4 16.6 8 17 0 12.17
6/24/19 75.8 50.2 0.00 58.78 631 0.18 1.0 6.9 W | 268 51.8 94 47 4.8 65.3 16.8 8 16 0 12.15
6/23/19 83.1 56.8 0.00 58.78 663 0.20 1.3 6.4 WSW | 239 50.5 87 25 1.3 65.2 17.0 7 14 0 12.16
6/22/19 78.4 48.3 0.00 58.78 671 0.20 1.4 6.7 WSW | 253 50.8 85 40 0.6 65.2 17.2 9 19 0 12.13
6/21/19 71.5 48.7 0.00 58.78 640 0.18 1.4 7.6 WSW | 248 50.3 95 52 13.4 65.2 17.4 11 22 0 12.14
6/20/19 62.8 50.5 0.04 58.78 260 0.07 0.9 8.1 SW | 234 51.9 94 70 13.5 65.1 17.5 18 27 11 12.15
6/19/19 75.4 49.5 0.00 58.74 683 0.19 1.3 7.5 WSW | 241 53.4 95 52 10.1 65.0 17.5 8 16 0 12.17
6/18/19 78.3 48.9 0.00 58.74 653 0.19 1.1 6.5 SW | 235 53.1 94 47 12.6 64.8 17.7 8 17 0 12.18
Max 91.5 60.2 0.04 - 683 0.20 1.6 15.9 - 55.9 95 70 13.5 68.2 17.7 18 27 11 12.20
Avg - - - - - - 1.3 - - 51.2 - - - 66.1 15.9 8 16 0 -
Min 62.8 45.9 0.00 - 260 0.07 0.9 6.4 - 45.6 66 20 0.0 64.8 14.6 5 10 0 12.13